sensor_id;sensor_type;location;lat;lon;timestamp;pressure;altitude;pressure_sealevel;temperature;humidity
71151;BME280;59071;42.138;24.768;2023-04-09T00:01:53;100058.56;;;8.39;85.76
71151;BME280;59071;42.138;24.768;2023-04-09T00:04:18;100061.00;;;8.49;84.70
71151;BME280;59071;42.138;24.768;2023-04-09T00:06:43;100065.78;;;8.31;85.44
71151;BME280;59071;42.138;24.768;2023-04-09T00:09:08;100062.75;;;8.42;84.07
71151;BME280;59071;42.138;24.768;2023-04-09T00:11:34;100065.69;;;8.09;85.91
71151;BME280;59071;42.138;24.768;2023-04-09T00:14:00;100071.25;;;8.14;85.65
71151;BME280;59071;42.138;24.768;2023-04-09T00:16:25;100074.88;;;7.98;85.76
71151;BME280;59071;42.138;24.768;2023-04-09T00:18:51;100079.88;;;7.70;87.72
71151;BME280;59071;42.138;24.768;2023-04-09T00:21:16;100073.22;;;7.97;86.79
71151;BME280;59071;42.138;24.768;2023-04-09T00:23:41;100079.69;;;7.95;86.63
71151;BME280;59071;42.138;24.768;2023-04-09T00:26:07;100080.66;;;7.79;87.21
71151;BME280;59071;42.138;24.768;2023-04-09T00:28:33;100083.59;;;7.61;87.67
71151;BME280;59071;42.138;24.768;2023-04-09T00:30:58;100081.25;;;7.66;87.88
71151;BME280;59071;42.138;24.768;2023-04-09T00:33:23;100084.38;;;7.70;87.66
71151;BME280;59071;42.138;24.768;2023-04-09T00:35:49;100080.84;;;7.77;87.60
71151;BME280;59071;42.138;24.768;2023-04-09T00:38:15;100084.16;;;7.48;87.88
71151;BME280;59071;42.138;24.768;2023-04-09T00:40:40;100089.19;;;7.66;87.99
71151;BME280;59071;42.138;24.768;2023-04-09T00:43:06;100091.75;;;7.51;88.91
71151;BME280;59071;42.138;24.768;2023-04-09T00:45:32;100092.81;;;7.65;88.07
71151;BME280;59071;42.138;24.768;2023-04-09T00:47:57;100094.47;;;7.43;89.16
71151;BME280;59071;42.138;24.768;2023-04-09T00:50:23;100092.53;;;7.60;89.14
71151;BME280;59071;42.138;24.768;2023-04-09T00:52:48;100091.59;;;7.76;87.87
71151;BME280;59071;42.138;24.768;2023-04-09T00:55:13;100096.72;;;7.54;88.94
71151;BME280;59071;42.138;24.768;2023-04-09T00:57:39;100097.88;;;7.52;88.63
71151;BME280;59071;42.138;24.768;2023-04-09T01:00:04;100093.59;;;7.51;88.89
71151;BME280;59071;42.138;24.768;2023-04-09T01:02:31;100093.69;;;7.57;88.56
71151;BME280;59071;42.138;24.768;2023-04-09T01:04:57;100088.94;;;7.53;89.39
71151;BME280;59071;42.138;24.768;2023-04-09T01:10:23;100086.16;;;7.46;89.07
71151;BME280;59071;42.138;24.768;2023-04-09T01:15:16;100087.19;;;7.05;90.76
71151;BME280;59071;42.138;24.768;2023-04-09T01:20:47;100089.72;;;7.30;90.23
71151;BME280;59071;42.138;24.768;2023-04-09T01:28:52;100086.50;;;6.64;93.57
71151;BME280;59071;42.138;24.768;2023-04-09T01:31:17;100097.22;;;6.79;92.66
71151;BME280;59071;42.138;24.768;2023-04-09T01:33:44;100084.44;;;6.99;92.95
71151;BME280;59071;42.138;24.768;2023-04-09T01:36:10;100094.97;;;7.07;92.16
71151;BME280;59071;42.138;24.768;2023-04-09T01:38:36;100099.94;;;7.10;91.17
71151;BME280;59071;42.138;24.768;2023-04-09T01:41:03;100095.88;;;6.91;91.41
71151;BME280;59071;42.138;24.768;2023-04-09T01:43:30;100088.66;;;7.08;91.86
71151;BME280;59071;42.138;24.768;2023-04-09T01:45:56;100094.69;;;6.94;92.16
71151;BME280;59071;42.138;24.768;2023-04-09T01:48:22;100099.59;;;7.05;91.59
71151;BME280;59071;42.138;24.768;2023-04-09T01:50:48;100097.50;;;6.92;91.32
71151;BME280;59071;42.138;24.768;2023-04-09T01:53:13;100102.59;;;7.02;91.44
71151;BME280;59071;42.138;24.768;2023-04-09T01:55:39;100104.66;;;6.83;92.31
71151;BME280;59071;42.138;24.768;2023-04-09T01:58:04;100105.00;;;7.20;90.50
71151;BME280;59071;42.138;24.768;2023-04-09T02:00:31;100102.84;;;7.23;90.20
71151;BME280;59071;42.138;24.768;2023-04-09T02:05:37;100106.78;;;7.28;90.50
71151;BME280;59071;42.138;24.768;2023-04-09T02:08:06;100109.66;;;7.18;89.63
71151;BME280;59071;42.138;24.768;2023-04-09T02:10:33;100101.31;;;7.29;89.73
71151;BME280;59071;42.138;24.768;2023-04-09T02:12:59;100106.47;;;7.22;89.58
71151;BME280;59071;42.138;24.768;2023-04-09T02:15:25;100108.16;;;7.15;89.78
71151;BME280;59071;42.138;24.768;2023-04-09T02:17:52;100111.25;;;7.27;89.07
71151;BME280;59071;42.138;24.768;2023-04-09T02:20:17;100113.81;;;7.12;89.74
71151;BME280;59071;42.138;24.768;2023-04-09T02:22:43;100118.50;;;6.94;90.87
71151;BME280;59071;42.138;24.768;2023-04-09T02:25:09;100117.19;;;6.81;91.42
71151;BME280;59071;42.138;24.768;2023-04-09T02:27:34;100110.34;;;6.56;91.70
71151;BME280;59071;42.138;24.768;2023-04-09T02:29:59;100111.91;;;6.81;91.89
71151;BME280;59071;42.138;24.768;2023-04-09T02:32:25;100115.53;;;6.89;91.53
71151;BME280;59071;42.138;24.768;2023-04-09T02:34:50;100115.38;;;6.90;91.23
71151;BME280;59071;42.138;24.768;2023-04-09T02:37:15;100113.91;;;6.88;91.00
71151;BME280;59071;42.138;24.768;2023-04-09T02:39:42;100111.16;;;6.64;93.29
71151;BME280;59071;42.138;24.768;2023-04-09T02:42:07;100112.59;;;6.75;92.50
71151;BME280;59071;42.138;24.768;2023-04-09T02:44:32;100115.59;;;6.64;92.61
71151;BME280;59071;42.138;24.768;2023-04-09T02:46:58;100108.19;;;6.59;93.20
71151;BME280;59071;42.138;24.768;2023-04-09T02:49:23;100103.34;;;6.71;91.37
71151;BME280;59071;42.138;24.768;2023-04-09T02:51:49;100129.84;;;6.38;94.25
71151;BME280;59071;42.138;24.768;2023-04-09T02:54:14;100123.06;;;6.36;94.54
71151;BME280;59071;42.138;24.768;2023-04-09T02:56:40;100119.38;;;6.78;93.45
71151;BME280;59071;42.138;24.768;2023-04-09T02:59:05;100125.38;;;6.39;93.87
71151;BME280;59071;42.138;24.768;2023-04-09T03:01:30;100130.00;;;6.45;94.47
71151;BME280;59071;42.138;24.768;2023-04-09T03:03:56;100125.31;;;6.72;92.70
71151;BME280;59071;42.138;24.768;2023-04-09T03:06:21;100121.34;;;6.84;92.86
71151;BME280;59071;42.138;24.768;2023-04-09T03:08:46;100129.84;;;6.46;94.07
71151;BME280;59071;42.138;24.768;2023-04-09T03:11:11;100125.69;;;6.60;93.20
71151;BME280;59071;42.138;24.768;2023-04-09T03:13:37;100129.66;;;6.56;93.95
71151;BME280;59071;42.138;24.768;2023-04-09T03:16:02;100116.41;;;6.73;93.34
71151;BME280;59071;42.138;24.768;2023-04-09T03:18:27;100118.94;;;6.41;93.00
71151;BME280;59071;42.138;24.768;2023-04-09T03:20:53;100115.16;;;6.44;93.92
71151;BME280;59071;42.138;24.768;2023-04-09T03:23:18;100113.09;;;6.79;93.14
71151;BME280;59071;42.138;24.768;2023-04-09T03:25:43;100114.13;;;6.45;94.18
71151;BME280;59071;42.138;24.768;2023-04-09T03:28:08;100115.00;;;6.21;94.79
71151;BME280;59071;42.138;24.768;2023-04-09T03:30:34;100114.81;;;6.55;94.68
71151;BME280;59071;42.138;24.768;2023-04-09T03:32:59;100118.63;;;6.44;93.69
71151;BME280;59071;42.138;24.768;2023-04-09T03:35:25;100124.38;;;6.56;93.76
71151;BME280;59071;42.138;24.768;2023-04-09T03:37:50;100116.63;;;6.46;94.24
71151;BME280;59071;42.138;24.768;2023-04-09T03:40:15;100123.38;;;6.49;93.76
71151;BME280;59071;42.138;24.768;2023-04-09T03:42:41;100119.19;;;6.88;92.63
71151;BME280;59071;42.138;24.768;2023-04-09T03:45:07;100121.03;;;6.79;92.23
71151;BME280;59071;42.138;24.768;2023-04-09T03:47:32;100129.56;;;6.89;91.22
71151;BME280;59071;42.138;24.768;2023-04-09T03:49:57;100131.13;;;6.83;91.66
71151;BME280;59071;42.138;24.768;2023-04-09T03:52:23;100132.94;;;6.75;91.50
71151;BME280;59071;42.138;24.768;2023-04-09T03:54:48;100138.56;;;6.63;92.53
71151;BME280;59071;42.138;24.768;2023-04-09T03:57:13;100133.63;;;6.52;92.92
71151;BME280;59071;42.138;24.768;2023-04-09T03:59:38;100138.91;;;6.60;93.37
71151;BME280;59071;42.138;24.768;2023-04-09T04:02:04;100133.09;;;6.73;92.06
71151;BME280;59071;42.138;24.768;2023-04-09T04:04:29;100134.25;;;6.79;92.73
71151;BME280;59071;42.138;24.768;2023-04-09T04:06:55;100135.59;;;6.75;91.36
71151;BME280;59071;42.138;24.768;2023-04-09T04:09:20;100149.19;;;6.39;94.32
71151;BME280;59071;42.138;24.768;2023-04-09T04:11:45;100152.00;;;6.21;95.30
71151;BME280;59071;42.138;24.768;2023-04-09T04:14:11;100143.56;;;6.34;93.86
71151;BME280;59071;42.138;24.768;2023-04-09T04:16:36;100147.69;;;6.61;93.93
71151;BME280;59071;42.138;24.768;2023-04-09T04:19:01;100136.63;;;6.33;95.13
71151;BME280;59071;42.138;24.768;2023-04-09T04:21:26;100157.78;;;6.16;96.01
71151;BME280;59071;42.138;24.768;2023-04-09T04:23:52;100152.50;;;6.24;95.29
71151;BME280;59071;42.138;24.768;2023-04-09T04:26:17;100150.66;;;6.33;95.18
71151;BME280;59071;42.138;24.768;2023-04-09T04:28:42;100154.97;;;6.59;94.48
71151;BME280;59071;42.138;24.768;2023-04-09T04:31:08;100148.50;;;6.61;94.05
71151;BME280;59071;42.138;24.768;2023-04-09T04:33:34;100155.72;;;6.76;92.42
71151;BME280;59071;42.138;24.768;2023-04-09T04:36:06;100146.44;;;7.04;91.51
71151;BME280;59071;42.138;24.768;2023-04-09T04:38:32;100147.31;;;6.80;91.81
71151;BME280;59071;42.138;24.768;2023-04-09T04:40:58;100147.16;;;6.82;90.89
71151;BME280;59071;42.138;24.768;2023-04-09T04:43:23;100151.44;;;6.83;92.38
71151;BME280;59071;42.138;24.768;2023-04-09T04:45:48;100155.03;;;6.98;90.78
71151;BME280;59071;42.138;24.768;2023-04-09T04:48:13;100162.38;;;6.80;91.79
71151;BME280;59071;42.138;24.768;2023-04-09T04:50:39;100170.09;;;6.81;92.11
71151;BME280;59071;42.138;24.768;2023-04-09T04:53:04;100161.53;;;6.79;92.04
71151;BME280;59071;42.138;24.768;2023-04-09T04:55:29;100155.56;;;6.85;91.85
71151;BME280;59071;42.138;24.768;2023-04-09T04:57:55;100158.34;;;6.92;91.99
71151;BME280;59071;42.138;24.768;2023-04-09T05:00:20;100158.25;;;7.25;90.24
71151;BME280;59071;42.138;24.768;2023-04-09T05:02:45;100156.59;;;7.24;89.36
71151;BME280;59071;42.138;24.768;2023-04-09T05:05:10;100163.16;;;7.36;89.24
71151;BME280;59071;42.138;24.768;2023-04-09T05:07:36;100164.75;;;7.14;89.42
71151;BME280;59071;42.138;24.768;2023-04-09T05:10:01;100161.91;;;7.16;89.46
71151;BME280;59071;42.138;24.768;2023-04-09T05:12:26;100158.41;;;7.32;88.91
71151;BME280;59071;42.138;24.768;2023-04-09T05:14:52;100158.59;;;7.22;89.47
71151;BME280;59071;42.138;24.768;2023-04-09T05:17:17;100157.53;;;7.39;88.56
71151;BME280;59071;42.138;24.768;2023-04-09T05:19:42;100155.59;;;7.33;88.52
71151;BME280;59071;42.138;24.768;2023-04-09T05:22:08;100163.03;;;7.30;90.21
71151;BME280;59071;42.138;24.768;2023-04-09T05:24:33;100162.50;;;7.42;88.67
71151;BME280;59071;42.138;24.768;2023-04-09T05:26:58;100165.97;;;7.43;88.82
71151;BME280;59071;42.138;24.768;2023-04-09T05:29:23;100161.03;;;7.32;89.35
71151;BME280;59071;42.138;24.768;2023-04-09T05:31:49;100160.56;;;7.28;89.75
71151;BME280;59071;42.138;24.768;2023-04-09T05:34:14;100163.09;;;7.53;88.95
71151;BME280;59071;42.138;24.768;2023-04-09T05:36:39;100165.13;;;7.74;87.94
71151;BME280;59071;42.138;24.768;2023-04-09T05:39:05;100161.13;;;7.78;87.13
71151;BME280;59071;42.138;24.768;2023-04-09T05:41:30;100171.47;;;7.96;86.05
71151;BME280;59071;42.138;24.768;2023-04-09T05:43:57;100164.66;;;7.70;87.53
71151;BME280;59071;42.138;24.768;2023-04-09T05:46:22;100167.53;;;7.60;87.90
71151;BME280;59071;42.138;24.768;2023-04-09T05:48:48;100171.00;;;8.15;89.13
71151;BME280;59071;42.138;24.768;2023-04-09T05:51:13;100171.47;;;7.96;86.83
71151;BME280;59071;42.138;24.768;2023-04-09T05:53:39;100175.59;;;7.98;86.09
71151;BME280;59071;42.138;24.768;2023-04-09T05:56:14;100174.81;;;8.13;84.96
71151;BME280;59071;42.138;24.768;2023-04-09T05:58:39;100178.94;;;8.15;85.16
71151;BME280;59071;42.138;24.768;2023-04-09T06:01:05;100185.63;;;8.26;84.23
71151;BME280;59071;42.138;24.768;2023-04-09T06:03:30;100179.13;;;8.14;83.49
71151;BME280;59071;42.138;24.768;2023-04-09T06:05:55;100183.38;;;8.00;84.39
71151;BME280;59071;42.138;24.768;2023-04-09T06:08:21;100185.88;;;8.16;84.03
71151;BME280;59071;42.138;24.768;2023-04-09T06:10:46;100188.03;;;8.21;84.52
71151;BME280;59071;42.138;24.768;2023-04-09T06:13:11;100182.19;;;8.02;84.67
71151;BME280;59071;42.138;24.768;2023-04-09T06:15:37;100191.25;;;8.08;84.45
71151;BME280;59071;42.138;24.768;2023-04-09T06:18:03;100191.00;;;8.18;83.85
71151;BME280;59071;42.138;24.768;2023-04-09T06:20:28;100188.91;;;8.13;83.98
71151;BME280;59071;42.138;24.768;2023-04-09T06:22:53;100190.34;;;8.39;83.37
71151;BME280;59071;42.138;24.768;2023-04-09T06:25:18;100183.84;;;8.27;83.31
71151;BME280;59071;42.138;24.768;2023-04-09T06:27:44;100185.38;;;8.44;82.00
71151;BME280;59071;42.138;24.768;2023-04-09T06:30:09;100180.38;;;8.49;82.27
71151;BME280;59071;42.138;24.768;2023-04-09T06:32:35;100181.66;;;8.53;82.31
71151;BME280;59071;42.138;24.768;2023-04-09T06:35:00;100180.53;;;8.25;81.88
71151;BME280;59071;42.138;24.768;2023-04-09T06:37:25;100185.25;;;8.60;81.98
71151;BME280;59071;42.138;24.768;2023-04-09T06:39:50;100187.22;;;8.82;79.50
71151;BME280;59071;42.138;24.768;2023-04-09T06:42:16;100185.16;;;8.69;80.83
71151;BME280;59071;42.138;24.768;2023-04-09T06:44:41;100183.50;;;8.68;80.68
71151;BME280;59071;42.138;24.768;2023-04-09T06:47:06;100186.66;;;8.86;79.37
71151;BME280;59071;42.138;24.768;2023-04-09T06:49:32;100194.19;;;9.12;79.07
71151;BME280;59071;42.138;24.768;2023-04-09T06:51:58;100185.38;;;9.12;79.09
71151;BME280;59071;42.138;24.768;2023-04-09T06:54:23;100187.13;;;9.19;78.15
71151;BME280;59071;42.138;24.768;2023-04-09T06:56:48;100193.91;;;9.22;77.99
71151;BME280;59071;42.138;24.768;2023-04-09T06:59:13;100189.06;;;9.26;78.40
71151;BME280;59071;42.138;24.768;2023-04-09T07:01:40;100195.19;;;9.26;77.16
71151;BME280;59071;42.138;24.768;2023-04-09T07:04:05;100200.38;;;9.34;77.57
71151;BME280;59071;42.138;24.768;2023-04-09T07:06:31;100197.53;;;9.51;77.42
71151;BME280;59071;42.138;24.768;2023-04-09T07:08:56;100200.16;;;9.81;75.63
71151;BME280;59071;42.138;24.768;2023-04-09T07:11:21;100196.44;;;9.60;76.62
71151;BME280;59071;42.138;24.768;2023-04-09T07:13:47;100205.16;;;9.09;78.86
71151;BME280;59071;42.138;24.768;2023-04-09T07:16:12;100193.25;;;9.05;79.02
71151;BME280;59071;42.138;24.768;2023-04-09T07:18:37;100190.88;;;9.25;79.19
71151;BME280;59071;42.138;24.768;2023-04-09T07:21:03;100190.09;;;9.61;77.87
71151;BME280;59071;42.138;24.768;2023-04-09T07:23:28;100190.56;;;9.50;77.25
71151;BME280;59071;42.138;24.768;2023-04-09T07:25:53;100199.91;;;9.97;74.13
71151;BME280;59071;42.138;24.768;2023-04-09T07:28:18;100191.84;;;10.05;74.98
71151;BME280;59071;42.138;24.768;2023-04-09T07:30:44;100197.38;;;10.75;71.80
71151;BME280;59071;42.138;24.768;2023-04-09T07:33:11;100186.41;;;11.74;71.59
71151;BME280;59071;42.138;24.768;2023-04-09T07:35:36;100184.13;;;12.80;65.58
71151;BME280;59071;42.138;24.768;2023-04-09T07:38:01;100182.06;;;12.75;63.30
71151;BME280;59071;42.138;24.768;2023-04-09T07:40:27;100185.25;;;13.37;61.53
71151;BME280;59071;42.138;24.768;2023-04-09T07:42:52;100180.34;;;13.79;60.33
71151;BME280;59071;42.138;24.768;2023-04-09T07:45:18;100180.91;;;13.43;59.89
71151;BME280;59071;42.138;24.768;2023-04-09T07:47:43;100187.53;;;13.20;60.43
71151;BME280;59071;42.138;24.768;2023-04-09T07:50:09;100197.81;;;13.82;58.46
71151;BME280;59071;42.138;24.768;2023-04-09T07:52:34;100171.56;;;14.04;57.28
71151;BME280;59071;42.138;24.768;2023-04-09T07:55:00;100186.63;;;13.98;58.38
71151;BME280;59071;42.138;24.768;2023-04-09T07:57:25;100192.84;;;13.92;57.38
71151;BME280;59071;42.138;24.768;2023-04-09T07:59:52;100190.25;;;14.68;54.50
71151;BME280;59071;42.138;24.768;2023-04-09T08:02:17;100192.69;;;14.94;54.11
71151;BME280;59071;42.138;24.768;2023-04-09T08:04:42;100184.97;;;14.29;56.58
71151;BME280;59071;42.138;24.768;2023-04-09T08:07:08;100188.28;;;14.81;54.50
71151;BME280;59071;42.138;24.768;2023-04-09T08:09:33;100192.03;;;15.36;54.61
71151;BME280;59071;42.138;24.768;2023-04-09T08:11:58;100192.94;;;16.27;51.03
71151;BME280;59071;42.138;24.768;2023-04-09T08:14:23;100189.47;;;16.50;46.84
71151;BME280;59071;42.138;24.768;2023-04-09T08:16:49;100190.75;;;15.94;50.46
71151;BME280;59071;42.138;24.768;2023-04-09T08:19:15;100192.50;;;16.42;49.40
71151;BME280;59071;42.138;24.768;2023-04-09T08:21:41;100194.03;;;16.61;47.94
71151;BME280;59071;42.138;24.768;2023-04-09T08:24:07;100190.94;;;17.52;45.79
71151;BME280;59071;42.138;24.768;2023-04-09T08:26:32;100190.53;;;17.32;47.09
71151;BME280;59071;42.138;24.768;2023-04-09T08:28:58;100191.19;;;17.51;45.00
71151;BME280;59071;42.138;24.768;2023-04-09T08:31:23;100190.41;;;17.38;45.80
71151;BME280;59071;42.138;24.768;2023-04-09T08:33:49;100189.00;;;17.36;46.66
71151;BME280;59071;42.138;24.768;2023-04-09T08:36:14;100178.31;;;18.39;45.55
71151;BME280;59071;42.138;24.768;2023-04-09T08:38:40;100188.41;;;19.44;43.06
71151;BME280;59071;42.138;24.768;2023-04-09T08:41:06;100179.09;;;19.29;41.58
71151;BME280;59071;42.138;24.768;2023-04-09T08:43:31;100177.81;;;19.15;42.81
71151;BME280;59071;42.138;24.768;2023-04-09T08:45:57;100181.63;;;18.97;41.42
71151;BME280;59071;42.138;24.768;2023-04-09T08:48:23;100183.59;;;18.51;43.86
71151;BME280;59071;42.138;24.768;2023-04-09T08:50:49;100176.63;;;19.06;42.41
71151;BME280;59071;42.138;24.768;2023-04-09T08:53:14;100170.81;;;19.80;41.39
71151;BME280;59071;42.138;24.768;2023-04-09T08:55:43;100171.59;;;20.40;39.12
71151;BME280;59071;42.138;24.768;2023-04-09T08:58:09;100174.94;;;20.90;37.94
71151;BME280;59071;42.138;24.768;2023-04-09T09:00:35;100186.16;;;20.66;38.07
71151;BME280;59071;42.138;24.768;2023-04-09T09:03:07;100180.34;;;19.88;38.86
71151;BME280;59071;42.138;24.768;2023-04-09T09:05:39;100182.22;;;19.65;39.80
71151;BME280;59071;42.138;24.768;2023-04-09T09:08:08;100183.59;;;18.85;41.17
71151;BME280;59071;42.138;24.768;2023-04-09T09:10:38;100180.28;;;19.00;41.53
71151;BME280;59071;42.138;24.768;2023-04-09T09:13:37;100184.25;;;18.92;41.39
71151;BME280;59071;42.138;24.768;2023-04-09T09:16:16;100176.56;;;19.01;40.78
71151;BME280;59071;42.138;24.768;2023-04-09T09:18:42;100168.03;;;19.09;40.41
71151;BME280;59071;42.138;24.768;2023-04-09T09:23:36;100168.34;;;19.12;41.27
71151;BME280;59071;42.138;24.768;2023-04-09T09:26:12;100168.09;;;19.36;40.94
71151;BME280;59071;42.138;24.768;2023-04-09T09:28:37;100163.19;;;19.55;39.99
71151;BME280;59071;42.138;24.768;2023-04-09T09:31:10;100153.84;;;19.41;40.82
71151;BME280;59071;42.138;24.768;2023-04-09T09:33:35;100158.25;;;18.69;40.61
71151;BME280;59071;42.138;24.768;2023-04-09T09:36:01;100132.53;;;18.10;41.79
71151;BME280;59071;42.138;24.768;2023-04-09T09:38:28;100150.88;;;18.98;39.76
71151;BME280;59071;42.138;24.768;2023-04-09T09:40:53;100146.34;;;18.48;40.85
71151;BME280;59071;42.138;24.768;2023-04-09T09:43:19;100139.34;;;18.30;41.21
71151;BME280;59071;42.138;24.768;2023-04-09T09:45:45;100147.69;;;18.45;42.11
71151;BME280;59071;42.138;24.768;2023-04-09T09:48:11;100146.50;;;19.36;39.28
71151;BME280;59071;42.138;24.768;2023-04-09T09:50:39;100133.59;;;19.38;40.26
71151;BME280;59071;42.138;24.768;2023-04-09T09:53:09;100137.22;;;19.98;37.68
71151;BME280;59071;42.138;24.768;2023-04-09T09:55:38;100133.94;;;20.61;37.05
71151;BME280;59071;42.138;24.768;2023-04-09T09:58:23;100131.94;;;20.83;37.26
71151;BME280;59071;42.138;24.768;2023-04-09T10:00:51;100143.84;;;20.18;38.82
71151;BME280;59071;42.138;24.768;2023-04-09T10:03:22;100138.56;;;20.01;37.49
71151;BME280;59071;42.138;24.768;2023-04-09T10:05:49;100133.28;;;20.86;36.75
71151;BME280;59071;42.138;24.768;2023-04-09T10:08:14;100126.41;;;19.98;36.60
71151;BME280;59071;42.138;24.768;2023-04-09T10:10:40;100128.03;;;17.99;39.07
71151;BME280;59071;42.138;24.768;2023-04-09T10:13:07;100123.00;;;18.36;39.56
71151;BME280;59071;42.138;24.768;2023-04-09T10:15:34;100115.91;;;18.47;39.50
71151;BME280;59071;42.138;24.768;2023-04-09T10:17:59;100115.22;;;18.91;38.01
71151;BME280;59071;42.138;24.768;2023-04-09T10:20:27;100115.16;;;18.35;38.57
71151;BME280;59071;42.138;24.768;2023-04-09T10:22:56;100113.19;;;18.64;38.64
71151;BME280;59071;42.138;24.768;2023-04-09T10:25:24;100103.53;;;19.07;37.70
71151;BME280;59071;42.138;24.768;2023-04-09T10:27:59;100094.41;;;20.17;37.06
71151;BME280;59071;42.138;24.768;2023-04-09T10:30:34;100090.81;;;19.25;37.36
71151;BME280;59071;42.138;24.768;2023-04-09T10:33:09;100085.50;;;19.08;37.46
71151;BME280;59071;42.138;24.768;2023-04-09T10:35:35;100090.94;;;17.84;40.69
71151;BME280;59071;42.138;24.768;2023-04-09T10:38:00;100097.88;;;16.99;43.48
71151;BME280;59071;42.138;24.768;2023-04-09T10:40:27;100088.25;;;17.55;42.51
71151;BME280;59071;42.138;24.768;2023-04-09T10:42:52;100081.38;;;18.44;40.34
71151;BME280;59071;42.138;24.768;2023-04-09T10:45:19;100070.59;;;18.10;39.75
71151;BME280;59071;42.138;24.768;2023-04-09T10:47:46;100070.28;;;17.15;40.38
71151;BME280;59071;42.138;24.768;2023-04-09T10:50:17;100069.94;;;18.37;37.51
71151;BME280;59071;42.138;24.768;2023-04-09T10:52:43;100064.97;;;18.46;37.23
71151;BME280;59071;42.138;24.768;2023-04-09T10:55:09;100062.13;;;18.35;36.16
71151;BME280;59071;42.138;24.768;2023-04-09T10:57:53;100061.88;;;17.86;35.88
71151;BME280;59071;42.138;24.768;2023-04-09T11:00:18;100059.13;;;17.98;34.38
71151;BME280;59071;42.138;24.768;2023-04-09T11:02:47;100072.66;;;18.20;32.61
71151;BME280;59071;42.138;24.768;2023-04-09T11:07:56;100046.84;;;16.87;36.72
71151;BME280;59071;42.138;24.768;2023-04-09T11:10:22;100049.69;;;17.09;35.66
71151;BME280;59071;42.138;24.768;2023-04-09T11:12:48;100041.72;;;17.14;36.03
71151;BME280;59071;42.138;24.768;2023-04-09T11:15:17;100047.34;;;17.87;34.84
71151;BME280;59071;42.138;24.768;2023-04-09T11:17:43;100038.84;;;18.12;33.76
71151;BME280;59071;42.138;24.768;2023-04-09T11:20:09;100031.72;;;18.01;33.21
71151;BME280;59071;42.138;24.768;2023-04-09T11:22:35;100023.22;;;18.09;33.06
71151;BME280;59071;42.138;24.768;2023-04-09T11:25:00;100022.38;;;17.75;32.63
71151;BME280;59071;42.138;24.768;2023-04-09T11:27:25;100021.91;;;18.12;32.50
71151;BME280;59071;42.138;24.768;2023-04-09T11:29:54;100011.31;;;17.88;33.16
71151;BME280;59071;42.138;24.768;2023-04-09T11:32:19;100021.56;;;17.91;32.84
71151;BME280;59071;42.138;24.768;2023-04-09T11:34:45;100007.97;;;18.37;32.45
71151;BME280;59071;42.138;24.768;2023-04-09T11:37:13;100008.63;;;17.88;33.52
71151;BME280;59071;42.138;24.768;2023-04-09T11:39:38;100007.84;;;18.27;33.68
71151;BME280;59071;42.138;24.768;2023-04-09T11:42:04;99998.72;;;18.50;31.51
71151;BME280;59071;42.138;24.768;2023-04-09T11:44:30;99982.94;;;19.03;31.80
71151;BME280;59071;42.138;24.768;2023-04-09T11:46:56;99981.38;;;18.63;31.23
71151;BME280;59071;42.138;24.768;2023-04-09T11:49:21;99984.00;;;18.35;31.79
71151;BME280;59071;42.138;24.768;2023-04-09T11:51:46;99986.56;;;18.08;32.07
71151;BME280;59071;42.138;24.768;2023-04-09T11:54:12;99992.31;;;18.56;32.09
71151;BME280;59071;42.138;24.768;2023-04-09T11:56:37;99984.41;;;18.27;32.73
71151;BME280;59071;42.138;24.768;2023-04-09T11:59:03;99976.94;;;17.78;34.20
71151;BME280;59071;42.138;24.768;2023-04-09T12:01:31;99963.47;;;18.73;32.66
71151;BME280;59071;42.138;24.768;2023-04-09T12:03:57;99966.72;;;18.75;31.07
71151;BME280;59071;42.138;24.768;2023-04-09T12:06:23;99982.47;;;18.45;32.46
71151;BME280;59071;42.138;24.768;2023-04-09T12:08:55;99969.31;;;18.26;32.26
71151;BME280;59071;42.138;24.768;2023-04-09T12:11:25;99956.53;;;18.16;31.65
71151;BME280;59071;42.138;24.768;2023-04-09T12:13:57;99972.13;;;17.81;32.43
71151;BME280;59071;42.138;24.768;2023-04-09T12:16:22;99963.25;;;17.46;32.46
71151;BME280;59071;42.138;24.768;2023-04-09T12:18:48;99953.44;;;17.74;32.90
71151;BME280;59071;42.138;24.768;2023-04-09T12:21:14;99952.19;;;18.15;32.47
71151;BME280;59071;42.138;24.768;2023-04-09T12:23:41;99943.06;;;18.83;31.71
71151;BME280;59071;42.138;24.768;2023-04-09T12:26:06;99946.59;;;19.38;31.62
71151;BME280;59071;42.138;24.768;2023-04-09T12:28:32;99946.47;;;18.95;32.08
71151;BME280;59071;42.138;24.768;2023-04-09T12:30:57;99942.00;;;18.62;32.51
71151;BME280;59071;42.138;24.768;2023-04-09T12:33:23;99942.59;;;18.42;33.54
71151;BME280;59071;42.138;24.768;2023-04-09T12:35:48;99946.69;;;17.54;35.07
71151;BME280;59071;42.138;24.768;2023-04-09T12:38:14;99949.59;;;17.36;35.38
71151;BME280;59071;42.138;24.768;2023-04-09T12:40:39;99941.13;;;16.70;36.48
71151;BME280;59071;42.138;24.768;2023-04-09T12:43:04;99949.59;;;17.36;35.49
71151;BME280;59071;42.138;24.768;2023-04-09T12:45:30;99952.13;;;17.26;34.94
71151;BME280;59071;42.138;24.768;2023-04-09T12:47:56;99935.84;;;16.75;36.61
71151;BME280;59071;42.138;24.768;2023-04-09T12:50:21;99934.28;;;16.62;37.28
71151;BME280;59071;42.138;24.768;2023-04-09T12:52:46;99923.03;;;16.25;38.02
71151;BME280;59071;42.138;24.768;2023-04-09T12:55:12;99924.22;;;16.57;37.63
71151;BME280;59071;42.138;24.768;2023-04-09T12:57:38;99928.28;;;16.60;37.50
71151;BME280;59071;42.138;24.768;2023-04-09T13:00:04;99919.00;;;16.91;37.89
71151;BME280;59071;42.138;24.768;2023-04-09T13:02:30;99916.91;;;17.10;37.33
71151;BME280;59071;42.138;24.768;2023-04-09T13:04:55;99907.22;;;17.60;35.60